Time;durP1;ratioP1;P1;durP2;ratioP2;P2;SDS_P1;SDS_P2;PMS_P1;PMS_P2;Temp;Humidity;BMP_temperature;BMP_pressure;BME280_temperature;BME280_humidity;BME280_pressure;Samples;Min_cycle;Max_cycle;Signal;HPM_P1;HPM_P2
2022/07/21 00:00:27;;;;;;;8.65;3.90;;;;;;;24.70;nan;98260.50;5033004;28;20484;-61
2022/07/21 00:02:55;;;;;;;7.25;3.72;;;;;;;24.70;nan;98252.19;5044522;28;20467;-60
2022/07/21 00:05:24;;;;;;;6.10;3.50;;;;;;;24.70;nan;98249.41;5042935;28;20650;-61
2022/07/21 00:07:55;;;;;;;7.35;3.38;;;;;;;24.67;nan;98261.31;5039358;28;20421;-60
2022/07/21 00:10:26;;;;;;;7.25;3.70;;;;;;;24.69;nan;98267.25;5036767;28;20877;-61
2022/07/21 00:13:19;;;;;;;5.00;3.15;;;;;;;24.68;nan;98260.13;5039781;28;20420;-60
2022/07/21 00:15:48;;;;;;;6.20;2.90;;;;;;;24.72;nan;98266.50;5034491;28;20415;-60
2022/07/21 00:18:17;;;;;;;5.20;3.00;;;;;;;24.69;nan;98278.38;5043691;28;20421;-61
2022/07/21 00:20:46;;;;;;;6.72;3.55;;;;;;;24.70;nan;98271.63;5043777;28;20500;-61
2022/07/21 00:23:14;;;;;;;5.15;2.92;;;;;;;24.74;nan;98272.44;5044246;28;20409;-60
2022/07/21 00:25:44;;;;;;;5.30;3.17;;;;;;;24.82;nan;98285.13;5044266;28;20480;-60
2022/07/21 00:28:12;;;;;;;4.28;2.80;;;;;;;24.77;nan;98282.75;5044447;28;20479;-61
2022/07/21 00:30:40;;;;;;;4.80;3.00;;;;;;;24.73;nan;98285.53;5051361;28;20400;-60
2022/07/21 00:33:08;;;;;;;4.45;2.70;;;;;;;24.74;nan;98278.78;5044894;28;20421;-60
2022/07/21 00:35:36;;;;;;;5.20;2.70;;;;;;;24.71;nan;98276.00;5037363;28;20936;-60
2022/07/21 00:38:05;;;;;;;5.20;2.30;;;;;;;24.60;nan;98266.84;5045540;28;20409;-60
2022/07/21 00:40:39;;;;;;;4.75;2.58;;;;;;;24.71;nan;98246.22;5047846;28;20428;-60
2022/07/21 00:43:21;;;;;;;5.40;2.30;;;;;;;24.41;nan;98232.72;5048949;28;20408;-61
2022/07/21 00:45:49;;;;;;;5.00;2.07;;;;;;;24.12;nan;98236.63;5025678;28;20442;-60
2022/07/21 00:48:18;;;;;;;4.20;2.10;;;;;;;23.90;nan;98214.34;5042731;28;20401;-60
2022/07/21 00:50:46;;;;;;;4.88;2.53;;;;;;;23.79;nan;98194.13;5046784;28;20897;-61
2022/07/21 00:53:14;;;;;;;4.30;2.25;;;;;;;23.85;nan;98159.25;5046429;28;20496;-60
2022/07/21 00:55:44;;;;;;;3.92;2.10;;;;;;;23.91;nan;98171.53;5043436;28;20884;-60
2022/07/21 00:58:12;;;;;;;4.00;2.30;;;;;;;23.88;nan;98150.16;5042622;28;20405;-61
2022/07/21 01:00:42;;;;;;;5.05;2.30;;;;;;;23.89;nan;98140.63;5035198;28;20414;-60
2022/07/21 01:03:11;;;;;;;4.20;2.20;;;;;;;23.89;nan;98142.63;5044430;28;20500;-60
2022/07/21 01:05:39;;;;;;;4.55;2.10;;;;;;;23.92;nan;98144.63;5045223;28;20439;-60
2022/07/21 01:08:07;;;;;;;5.80;2.80;;;;;;;23.90;nan;98141.44;5040877;28;20785;-61
2022/07/21 01:10:36;;;;;;;3.92;2.40;;;;;;;23.81;nan;98133.50;5025922;28;20422;-60
2022/07/21 01:13:07;;;;;;;5.67;2.57;;;;;;;23.91;nan;98135.47;5038296;28;20745;-60
2022/07/21 01:15:35;;;;;;;4.25;2.58;;;;;;;23.89;nan;98154.50;5034185;28;20463;-60
2022/07/21 01:18:12;;;;;;;4.50;2.60;;;;;;;23.87;nan;98126.38;5048356;28;20496;-60
2022/07/21 01:20:42;;;;;;;4.72;2.40;;;;;;;23.94;nan;98092.28;5045628;28;20995;-61
2022/07/21 01:23:12;;;;;;;6.60;2.50;;;;;;;24.03;nan;98135.09;5040123;28;20409;-60
2022/07/21 01:25:40;;;;;;;5.40;3.40;;;;;;;24.02;nan;98164.06;5041607;28;20462;-60
2022/07/21 01:28:08;;;;;;;6.22;2.33;;;;;;;23.79;nan;98163.59;5021998;28;20432;-62
2022/07/21 01:30:37;;;;;;;3.97;2.30;;;;;;;23.66;nan;98162.41;5031459;28;20440;-61
2022/07/21 01:33:05;;;;;;;5.57;2.57;;;;;;;23.70;nan;98165.94;5044328;28;20425;-60
2022/07/21 01:35:36;;;;;;;4.88;2.60;;;;;;;23.63;nan;98163.16;5042298;28;20429;-60
2022/07/21 01:38:04;;;;;;;7.28;2.70;;;;;;;23.76;nan;98158.84;5048051;28;20443;-60
2022/07/21 01:43:23;;;;;;;4.65;2.50;;;;;;;23.56;nan;98152.81;5045016;28;20507;-60
2022/07/21 01:45:51;;;;;;;5.95;2.90;;;;;;;23.47;nan;98152.38;5037747;28;20480;-62
2022/07/21 01:48:20;;;;;;;5.60;2.80;;;;;;;23.46;nan;98151.59;5043484;28;20425;-60
2022/07/21 01:50:48;;;;;;;4.50;2.88;;;;;;;23.43;nan;98152.38;5048249;28;20443;-60
2022/07/21 01:53:16;;;;;;;5.57;2.92;;;;;;;23.28;nan;98156.28;5047373;28;20504;-60
2022/07/21 01:55:46;;;;;;;4.85;2.60;;;;;;;23.24;nan;98153.50;5039263;28;20415;-60
2022/07/21 01:58:14;;;;;;;4.25;2.83;;;;;;;23.13;nan;98160.19;5032682;28;20897;-61
2022/07/21 02:00:41;;;;;;;4.30;2.50;;;;;;;23.12;nan;98151.06;5028453;28;20416;-61
2022/07/21 02:03:10;;;;;;;5.13;2.77;;;;;;;23.34;nan;98143.63;5038804;28;20453;-60
2022/07/21 02:05:38;;;;;;;6.03;2.47;;;;;;;23.16;nan;98137.22;5048797;28;20424;-60
2022/07/21 02:08:06;;;;;;;4.65;2.53;;;;;;;23.05;nan;98134.38;5026419;28;20506;-60
2022/07/21 02:10:37;;;;;;;5.07;2.60;;;;;;;23.05;nan;98141.91;5028095;28;20455;-60
2022/07/21 02:13:11;;;;;;;5.50;2.72;;;;;;;23.03;nan;98139.53;5027363;28;20426;-60
2022/07/21 02:16:05;;;;;;;4.93;2.70;;;;;;;23.15;nan;98141.16;5050905;28;20779;-60
2022/07/21 02:18:34;;;;;;;4.57;2.70;;;;;;;23.25;nan;98145.97;5022960;28;20793;-60
2022/07/21 02:21:03;;;;;;;5.63;2.67;;;;;;;23.17;nan;98152.66;5024945;28;20921;-60
2022/07/21 02:23:31;;;;;;;4.75;2.67;;;;;;;23.00;nan;98137.53;5023824;28;20411;-60
2022/07/21 02:25:59;;;;;;;5.35;2.70;;;;;;;22.96;nan;98139.50;5026525;28;20419;-60
2022/07/21 02:28:28;;;;;;;6.30;2.55;;;;;;;22.95;nan;98141.47;5026355;28;20509;-60
2022/07/21 02:30:57;;;;;;;4.65;2.63;;;;;;;22.84;nan;98134.25;5016625;28;20412;-59
2022/07/21 02:33:25;;;;;;;5.43;2.80;;;;;;;22.86;nan;98134.69;5027657;28;20422;-60
2022/07/21 02:35:53;;;;;;;6.10;2.60;;;;;;;22.78;nan;98130.25;5019154;28;20883;-63
2022/07/21 02:38:21;;;;;;;4.13;2.40;;;;;;;22.87;nan;98141.78;5018705;28;20468;-59
2022/07/21 02:40:49;;;;;;;4.53;2.60;;;;;;;22.86;nan;98149.31;5028058;28;20411;-60
2022/07/21 02:43:24;;;;;;;4.97;2.72;;;;;;;22.84;nan;98159.97;5019994;28;20490;-61
2022/07/21 02:45:54;;;;;;;4.85;2.90;;;;;;;22.87;nan;98169.50;5016269;28;20962;-60
2022/07/21 02:48:22;;;;;;;5.95;2.90;;;;;;;22.82;nan;98181.72;5022817;28;20437;-60
2022/07/21 02:50:51;;;;;;;5.60;3.05;;;;;;;22.87;nan;98189.69;5021541;28;20427;-60
2022/07/21 02:53:22;;;;;;;5.68;2.83;;;;;;;22.64;nan;98189.94;5022039;28;20411;-60
2022/07/21 02:55:52;;;;;;;7.03;2.90;;;;;;;22.70;nan;98191.16;5028240;28;20505;-60
2022/07/21 02:58:22;;;;;;;7.90;2.90;;;;;;;22.52;nan;98197.72;5023784;28;20412;-60
2022/07/21 03:00:53;;;;;;;5.90;3.10;;;;;;;22.67;nan;98197.44;5012449;28;20422;-60
2022/07/21 03:03:23;;;;;;;6.20;3.47;;;;;;;22.56;nan;98193.03;5014724;28;20826;-60
2022/07/21 03:05:51;;;;;;;6.13;3.25;;;;;;;22.57;nan;98211.22;5033660;28;20454;-61
2022/07/21 03:08:22;;;;;;;6.15;2.83;;;;;;;22.55;nan;98217.16;5038036;28;20822;-59
2022/07/21 03:10:51;;;;;;;6.20;3.17;;;;;;;22.51;nan;98223.81;5042982;28;20409;-60
2022/07/21 03:13:19;;;;;;;5.82;2.88;;;;;;;22.47;nan;98219.03;5039140;28;20450;-60
2022/07/21 03:15:53;;;;;;;5.80;3.03;;;;;;;22.33;nan;98221.72;5029999;28;20434;-60
2022/07/21 03:18:23;;;;;;;5.70;3.10;;;;;;;22.22;nan;98220.81;5043929;28;20471;-60
2022/07/21 03:20:51;;;;;;;5.07;3.00;;;;;;;22.31;nan;98239.84;5040923;28;20478;-59
2022/07/21 03:23:19;;;;;;;6.22;3.10;;;;;;;22.15;nan;98262.22;5025823;28;20415;-60
2022/07/21 03:25:48;;;;;;;6.07;3.33;;;;;;;22.01;nan;98264.84;5044671;28;20471;-60
2022/07/21 03:28:17;;;;;;;5.75;3.03;;;;;;;21.88;nan;98264.28;5036355;28;20440;-59
2022/07/21 03:30:45;;;;;;;6.18;3.65;;;;;;;21.74;nan;98267.69;5033218;28;20407;-60
2022/07/21 03:33:13;;;;;;;6.18;3.60;;;;;;;21.77;nan;98275.22;5024563;28;20417;-60
2022/07/21 03:35:43;;;;;;;5.90;3.47;;;;;;;21.95;nan;98281.78;5061280;28;20454;-60
2022/07/21 03:38:11;;;;;;;5.68;3.25;;;;;;;21.93;nan;98297.13;5060815;28;20411;-59
2022/07/21 03:40:39;;;;;;;6.45;3.30;;;;;;;21.90;nan;98301.47;5063835;28;20507;-60
2022/07/21 03:43:07;;;;;;;7.07;3.70;;;;;;;21.98;nan;98313.41;5066726;28;20556;-60
2022/07/21 03:45:37;;;;;;;6.18;3.55;;;;;;;22.01;nan;98326.50;5048149;28;20442;-60
2022/07/21 03:48:06;;;;;;;7.20;4.15;;;;;;;22.00;nan;98327.69;5039835;28;20425;-60
2022/07/21 03:50:36;;;;;;;7.78;4.07;;;;;;;21.87;nan;98304.97;5026896;28;20438;-59
2022/07/21 03:53:06;;;;;;;8.07;4.53;;;;;;;21.88;nan;98316.84;5045897;28;20413;-59
2022/07/21 03:55:34;;;;;;;8.32;4.38;;;;;;;21.91;nan;98325.19;5045643;28;20413;-60
2022/07/21 03:58:04;;;;;;;9.65;5.03;;;;;;;21.58;nan;98322.38;5025270;28;20889;-60
2022/07/21 04:00:35;;;;;;;8.23;4.88;;;;;;;21.54;nan;98304.94;5042829;28;20982;-60
2022/07/21 04:03:04;;;;;;;9.43;5.10;;;;;;;21.58;nan;98319.63;5040595;28;20494;-60
2022/07/21 04:05:33;;;;;;;8.87;4.77;;;;;;;21.48;nan;98323.81;5042109;28;20435;-60
2022/07/21 04:08:01;;;;;;;9.85;5.15;;;;;;;21.51;nan;98327.78;5027886;28;20506;-60
2022/07/21 04:10:33;;;;;;;9.10;5.03;;;;;;;21.53;nan;98308.88;5045570;28;20435;-59
2022/07/21 04:13:27;;;;;;;9.30;4.82;;;;;;;21.49;nan;98308.03;5042366;28;20507;-60
2022/07/21 04:15:55;;;;;;;8.07;4.70;;;;;;;21.48;nan;98307.25;5032242;28;20469;-62
2022/07/21 04:18:23;;;;;;;9.02;5.20;;;;;;;21.53;nan;98297.81;5027280;28;20887;-62
2022/07/21 04:20:52;;;;;;;8.07;5.30;;;;;;;21.51;nan;98294.63;5027090;28;20815;-61
2022/07/21 04:23:21;;;;;;;7.87;5.27;;;;;;;21.52;nan;98294.28;5029107;28;20514;-59
2022/07/21 04:25:51;;;;;;;8.50;5.37;;;;;;;21.63;nan;98302.72;5030114;28;20978;-60
2022/07/21 04:28:19;;;;;;;8.38;5.18;;;;;;;21.45;nan;98319.81;5033198;28;20756;-59
2022/07/21 04:30:47;;;;;;;8.15;5.72;;;;;;;21.39;nan;98326.84;5010394;28;20420;-60
2022/07/21 04:33:16;;;;;;;7.90;5.80;;;;;;;21.45;nan;98341.94;5031843;28;20506;-59
2022/07/21 04:35:44;;;;;;;9.40;5.45;;;;;;;21.55;nan;98345.25;5029516;28;20528;-60
2022/07/21 04:38:14;;;;;;;9.60;5.53;;;;;;;21.62;nan;98356.38;5031402;28;20558;-60
2022/07/21 04:40:41;;;;;;;9.00;5.25;;;;;;;21.57;nan;98363.06;5028067;28;20431;-61
2022/07/21 04:43:16;;;;;;;9.32;6.05;;;;;;;21.62;nan;98372.97;5038099;28;20420;-59
2022/07/21 04:45:45;;;;;;;9.27;5.80;;;;;;;21.69;nan;98379.44;5029917;28;20424;-60
2022/07/21 04:48:14;;;;;;;9.98;5.97;;;;;;;21.82;nan;98393.81;5042679;28;20443;-60
2022/07/21 04:50:42;;;;;;;11.87;6.40;;;;;;;21.77;nan;98396.91;5036602;28;20421;-60
2022/07/21 04:53:11;;;;;;;10.10;6.87;;;;;;;21.62;nan;98387.59;5034841;28;20421;-60
2022/07/21 04:55:39;;;;;;;11.43;6.80;;;;;;;21.56;nan;98363.41;5039665;28;20423;-60
2022/07/21 04:58:07;;;;;;;12.20;6.95;;;;;;;21.66;nan;98363.56;5027197;28;20501;-60
2022/07/21 05:00:36;;;;;;;12.10;7.00;;;;;;;21.62;nan;98375.75;5032737;28;20435;-60
2022/07/21 05:03:05;;;;;;;10.55;6.55;;;;;;;21.59;nan;98370.97;5059317;28;20472;-60
2022/07/21 05:05:33;;;;;;;10.90;6.78;;;;;;;21.57;nan;98376.06;5059572;28;20431;-60
2022/07/21 05:08:01;;;;;;;11.75;6.57;;;;;;;21.41;nan;98377.03;5058802;28;20528;-60
2022/07/21 05:10:29;;;;;;;15.85;7.22;;;;;;;21.34;nan;98381.66;5062169;28;20510;-61
2022/07/21 05:13:23;;;;;;;12.32;7.22;;;;;;;21.36;nan;98382.88;5059732;28;20423;-61
2022/07/21 05:15:53;;;;;;;13.10;7.38;;;;;;;21.34;nan;98378.88;5052447;28;20801;-61
2022/07/21 05:18:21;;;;;;;14.60;8.10;;;;;;;21.31;nan;98368.59;5039441;28;20465;-61
2022/07/21 05:20:50;;;;;;;11.40;7.20;;;;;;;21.26;nan;98366.91;5025718;28;20929;-61
2022/07/21 05:23:18;;;;;;;13.25;7.15;;;;;;;21.38;nan;98379.75;5020544;28;20944;-60
2022/07/21 05:25:46;;;;;;;12.25;7.70;;;;;;;21.36;nan;98388.41;5038728;28;20759;-62
2022/07/21 05:28:14;;;;;;;12.45;7.07;;;;;;;21.35;nan;98394.28;5042197;28;20472;-63
2022/07/21 05:30:42;;;;;;;13.88;8.23;;;;;;;21.28;nan;98396.91;5037576;28;20467;-60
2022/07/21 05:33:11;;;;;;;14.40;7.82;;;;;;;21.19;nan;98399.94;5052587;28;20421;-60
2022/07/21 05:35:40;;;;;;;13.43;7.60;;;;;;;21.22;nan;98404.72;5035847;28;20417;-60
2022/07/21 05:38:08;;;;;;;12.25;7.53;;;;;;;21.22;nan;98412.22;5046866;28;20917;-59
2022/07/21 05:40:36;;;;;;;16.25;8.90;;;;;;;21.13;nan;98413.25;5046074;28;20781;-60
2022/07/21 05:43:04;;;;;;;14.75;8.50;;;;;;;21.15;nan;98415.69;5047812;28;20418;-59
2022/07/21 05:45:33;;;;;;;12.85;8.13;;;;;;;21.02;nan;98425.28;5043272;28;20768;-59
2022/07/21 05:48:02;;;;;;;14.25;8.55;;;;;;;21.03;nan;98426.88;5047557;28;20471;-59
2022/07/21 05:50:36;;;;;;;15.73;8.63;;;;;;;21.25;nan;98434.38;5046620;28;20429;-60
2022/07/21 05:53:04;;;;;;;13.82;8.45;;;;;;;21.07;nan;98436.03;5048522;28;20406;-60
2022/07/21 05:55:33;;;;;;;12.32;8.68;;;;;;;21.23;nan;98433.16;5043716;28;20413;-60
2022/07/21 05:58:01;;;;;;;15.38;9.15;;;;;;;21.12;nan;98430.22;5043179;28;20401;-62
2022/07/21 06:00:38;;;;;;;12.98;8.02;;;;;;;21.23;nan;98431.19;5041682;28;20754;-60
2022/07/21 06:03:06;;;;;;;14.63;8.80;;;;;;;21.21;nan;98430.78;5047708;28;20412;-61
2022/07/21 06:05:41;;;;;;;14.35;8.90;;;;;;;21.43;nan;98432.75;5030432;28;20473;-60
2022/07/21 06:08:10;;;;;;;15.25;9.30;;;;;;;21.34;nan;98428.63;5044379;28;20419;-61
2022/07/21 06:10:38;;;;;;;15.63;9.20;;;;;;;21.42;nan;98444.97;5038594;28;20425;-60
2022/07/21 06:13:31;;;;;;;13.52;9.27;;;;;;;21.35;nan;98439.31;5045955;28;20794;-60
2022/07/21 06:15:59;;;;;;;16.08;9.52;;;;;;;21.24;nan;98441.06;5040324;28;20464;-61
2022/07/21 06:18:28;;;;;;;15.65;9.75;;;;;;;21.21;nan;98441.81;5040202;28;20426;-60
2022/07/21 06:20:59;;;;;;;13.30;8.90;;;;;;;21.16;nan;98439.38;5039650;28;20421;-60
2022/07/21 06:23:27;;;;;;;15.37;9.23;;;;;;;21.37;nan;98441.72;5035210;28;21052;-61
2022/07/21 06:25:57;;;;;;;14.03;9.17;;;;;;;21.38;nan;98424.75;5036938;28;20932;-62
2022/07/21 06:28:24;;;;;;;15.68;8.73;;;;;;;21.37;nan;98434.22;5036207;28;20426;-61
2022/07/21 06:30:53;;;;;;;13.50;9.13;;;;;;;21.43;nan;98437.47;5045862;28;20415;-64
2022/07/21 06:33:21;;;;;;;14.73;9.75;;;;;;;21.41;nan;98432.31;5063180;28;20445;-61
2022/07/21 06:35:49;;;;;;;15.20;9.15;;;;;;;21.33;nan;98427.84;5061318;28;20428;-61
2022/07/21 06:38:18;;;;;;;16.67;9.55;;;;;;;21.39;nan;98436.63;5067129;28;20541;-60
2022/07/21 06:40:46;;;;;;;17.42;10.13;;;;;;;21.28;nan;98430.09;5059199;28;20419;-61
2022/07/21 06:43:14;;;;;;;16.40;9.65;;;;;;;21.35;nan;98419.97;5061363;28;20423;-60
2022/07/21 06:45:55;;;;;;;15.40;9.55;;;;;;;21.42;nan;98425.63;5051301;28;20769;-61
2022/07/21 06:48:24;;;;;;;16.10;10.07;;;;;;;21.50;nan;98428.50;5046099;28;20500;-64
2022/07/21 06:50:54;;;;;;;17.33;9.90;;;;;;;21.59;nan;98434.56;5041922;28;20526;-64
2022/07/21 06:53:23;;;;;;;17.33;10.53;;;;;;;21.57;nan;98439.66;5038165;28;20436;-61
2022/07/21 06:55:52;;;;;;;14.80;10.23;;;;;;;21.47;nan;98434.78;5045709;28;20915;-60
2022/07/21 06:58:29;;;;;;;15.95;10.65;;;;;;;21.38;nan;98437.78;5028767;28;20505;-61
2022/07/21 07:01:06;;;;;;;19.42;10.48;;;;;;;21.26;nan;98430.47;5047656;28;20415;-60
2022/07/21 07:03:48;;;;;;;17.20;10.45;;;;;;;21.38;nan;98438.59;5047937;28;20423;-61
2022/07/21 07:06:17;;;;;;;14.98;10.43;;;;;;;21.49;nan;98435.19;5063804;28;20420;-62
2022/07/21 07:08:46;;;;;;;17.83;10.53;;;;;;;21.47;nan;98438.34;5058161;28;20432;-60
2022/07/21 07:11:14;;;;;;;16.80;10.15;;;;;;;21.52;nan;98439.97;5060702;28;20424;-61
2022/07/21 07:13:43;;;;;;;16.67;10.25;;;;;;;21.34;nan;98434.16;5069706;28;20642;-60
2022/07/21 07:16:31;;;;;;;16.67;10.95;;;;;;;21.46;nan;98442.25;5045124;28;20417;-61
2022/07/21 07:18:59;;;;;;;16.85;10.10;;;;;;;21.45;nan;98441.44;5044935;28;20420;-61
2022/07/21 07:21:27;;;;;;;18.88;10.93;;;;;;;21.39;nan;98437.41;5037208;28;20421;-61
2022/07/21 07:23:57;;;;;;;17.73;10.03;;;;;;;21.37;nan;98437.00;5039440;28;20417;-61
2022/07/21 07:26:25;;;;;;;17.30;10.35;;;;;;;21.27;nan;98443.09;5040688;28;20418;-60
2022/07/21 07:28:53;;;;;;;16.93;10.10;;;;;;;21.32;nan;98445.59;5042401;28;20420;-60
2022/07/21 07:31:23;;;;;;;16.40;9.65;;;;;;;21.36;nan;98451.16;5041375;28;20437;-61
2022/07/21 07:33:51;;;;;;;17.13;10.80;;;;;;;21.56;nan;98454.66;5042736;28;20405;-60
2022/07/21 07:36:20;;;;;;;17.55;10.63;;;;;;;21.63;nan;98460.31;5039276;28;20895;-61
2022/07/21 07:38:48;;;;;;;17.08;10.25;;;;;;;21.74;nan;98468.78;5033108;28;20890;-61
2022/07/21 07:41:17;;;;;;;16.58;9.98;;;;;;;21.83;nan;98463.75;5041393;28;20907;-60
2022/07/21 07:43:46;;;;;;;15.07;10.07;;;;;;;21.71;nan;98464.75;5037899;28;20422;-62
2022/07/21 07:46:15;;;;;;;15.15;10.70;;;;;;;21.68;nan;98463.56;5027258;28;20410;-60
2022/07/21 07:48:43;;;;;;;16.33;10.68;;;;;;;21.70;nan;98458.44;5036560;28;21019;-61
2022/07/21 07:51:12;;;;;;;15.57;10.23;;;;;;;21.82;nan;98460.19;5032384;28;20487;-61
2022/07/21 07:53:41;;;;;;;15.77;10.70;;;;;;;21.91;nan;98463.50;5031521;28;20413;-60
2022/07/21 07:56:13;;;;;;;16.83;10.60;;;;;;;21.87;nan;98457.09;5028482;28;20430;-60
2022/07/21 07:58:42;;;;;;;18.58;11.73;;;;;;;21.97;nan;98470.31;5037942;28;20411;-61
2022/07/21 08:04:30;;;;;;;16.25;10.85;;;;;;;21.94;nan;98462.75;5039555;28;20417;-60
2022/07/21 08:06:58;;;;;;;18.67;10.93;;;;;;;21.82;nan;98464.94;5041349;28;20910;-61
2022/07/21 08:09:35;;;;;;;16.60;9.95;;;;;;;21.75;nan;98459.31;5032059;28;20844;-60
2022/07/21 08:12:04;;;;;;;15.90;10.03;;;;;;;21.68;nan;98460.00;5044288;28;20448;-60
2022/07/21 08:14:33;;;;;;;16.20;10.23;;;;;;;21.80;nan;98461.75;5037214;28;20506;-60
2022/07/21 08:17:01;;;;;;;15.80;10.10;;;;;;;21.81;nan;98461.38;5023404;28;20421;-61
2022/07/21 08:20:25;;;;;;;15.52;9.57;;;;;;;21.94;nan;98450.88;5044064;28;20420;-61
2022/07/21 08:22:53;;;;;;;16.67;10.05;;;;;;;22.13;nan;98458.28;5037306;28;20411;-62
2022/07/21 08:25:22;;;;;;;15.35;10.10;;;;;;;22.23;nan;98454.88;5057757;28;20766;-60
2022/07/21 08:27:50;;;;;;;16.35;9.57;;;;;;;22.19;nan;98462.31;5028899;28;20431;-60
2022/07/21 08:30:26;;;;;;;16.05;9.20;;;;;;;22.16;nan;98463.09;5021009;28;20786;-60
2022/07/21 08:32:58;;;;;;;13.97;9.50;;;;;;;22.37;nan;98457.84;5051861;28;20416;-61
2022/07/21 08:35:26;;;;;;;13.82;8.75;;;;;;;22.42;nan;98474.09;5032962;28;20423;-60
2022/07/21 08:37:56;;;;;;;12.82;8.60;;;;;;;22.39;nan;98466.56;5044469;28;20454;-61
2022/07/21 08:40:25;;;;;;;14.25;9.15;;;;;;;22.37;nan;98465.31;5043292;28;20877;-60
2022/07/21 08:42:54;;;;;;;13.93;9.20;;;;;;;22.43;nan;98461.06;5043878;28;20405;-61
2022/07/21 08:45:23;;;;;;;15.00;9.43;;;;;;;22.45;nan;98462.28;5023683;28;20421;-61
2022/07/21 08:47:58;;;;;;;14.38;8.77;;;;;;;22.49;nan;98470.63;5040896;28;20499;-60
2022/07/21 08:50:29;;;;;;;13.17;8.37;;;;;;;22.48;nan;98471.81;5040844;28;20816;-61
2022/07/21 08:52:57;;;;;;;14.02;8.50;;;;;;;22.54;nan;98477.81;5036670;28;20455;-61
2022/07/21 08:55:29;;;;;;;12.63;8.35;;;;;;;22.43;nan;98484.00;5027623;28;20430;-61
2022/07/21 08:57:58;;;;;;;13.90;7.82;;;;;;;22.47;nan;98479.28;5036432;28;20446;-61
2022/07/21 09:00:26;;;;;;;13.70;8.20;;;;;;;22.61;nan;98477.91;5021732;28;20405;-61
2022/07/21 09:06:06;;;;;;;15.60;9.02;;;;;;;22.79;59.14;98473.34;5103184;27;20357;-63
2022/07/21 09:08:40;;;;;;;11.73;7.38;;;;;;;22.95;58.39;98478.69;5082347;28;20409;-62
2022/07/21 09:11:21;;;;;;;11.98;7.05;;;;;;;23.00;57.67;98487.47;5089440;28;20410;-63
2022/07/21 09:14:05;;;;;;;10.70;7.28;;;;;;;23.06;57.28;98476.81;5086849;28;20414;-62
2022/07/21 09:16:36;;;;;;;12.65;7.85;;;;;;;22.99;57.68;98474.78;5045543;28;20903;-61
2022/07/21 09:19:05;;;;;;;12.02;7.18;;;;;;;23.02;56.71;98476.03;5017367;28;20407;-61
2022/07/21 09:21:35;;;;;;;11.75;7.38;;;;;;;23.00;56.79;98478.34;5022263;28;20424;-63
2022/07/21 09:24:17;;;;;;;11.20;7.10;;;;;;;22.95;57.11;98478.69;5023420;28;20438;-62
2022/07/21 09:27:04;;;;;;;11.20;6.80;;;;;;;23.20;55.87;98470.63;5025307;28;20420;-62
2022/07/21 09:29:38;;;;;;;10.95;6.78;;;;;;;23.23;56.29;98473.44;5024698;28;20404;-64
2022/07/21 09:32:24;;;;;;;11.85;6.70;;;;;;;23.54;55.99;98463.00;5016721;28;20955;-62
2022/07/21 09:34:53;;;;;;;9.90;6.70;;;;;;;23.67;54.76;98471.88;5012922;28;20420;-62
2022/07/21 09:37:24;;;;;;;10.80;7.00;;;;;;;23.66;54.88;98470.28;5014546;28;20416;-62
2022/07/21 09:39:55;;;;;;;9.55;6.47;;;;;;;23.33;53.32;98476.69;5019131;28;20410;-64
2022/07/21 09:42:26;;;;;;;11.00;6.50;;;;;;;23.35;54.05;98475.13;5017565;28;20462;-64
2022/07/21 09:44:56;;;;;;;8.27;6.18;;;;;;;23.71;54.07;98486.56;5018553;28;20494;-62
2022/07/21 09:47:26;;;;;;;9.65;6.72;;;;;;;23.76;53.02;98480.66;5013889;28;20902;-62
2022/07/21 09:49:55;;;;;;;9.68;5.93;;;;;;;23.89;52.69;98470.84;5030170;28;20442;-62
2022/07/21 09:52:45;;;;;;;8.30;5.70;;;;;;;23.76;53.12;98475.13;5019322;28;20421;-62
2022/07/21 09:55:15;;;;;;;9.63;6.30;;;;;;;24.06;51.91;98477.69;5018050;28;20480;-63
2022/07/21 09:57:44;;;;;;;11.00;6.47;;;;;;;24.17;52.94;98477.75;5021960;28;20419;-62
2022/07/21 10:00:15;;;;;;;8.57;5.82;;;;;;;24.47;50.96;98480.31;5014454;28;20693;-64
2022/07/21 10:02:47;;;;;;;9.30;5.97;;;;;;;24.42;51.61;98473.16;5044544;28;20412;-63
2022/07/21 10:05:17;;;;;;;11.13;6.53;;;;;;;24.18;51.96;98457.94;5015749;28;20422;-63
2022/07/21 10:07:49;;;;;;;9.18;6.20;;;;;;;24.23;51.70;98456.75;4995946;28;20426;-62
2022/07/21 10:10:18;;;;;;;10.80;6.40;;;;;;;24.22;51.45;98464.28;4994664;28;20430;-62
2022/07/21 10:12:49;;;;;;;9.63;6.50;;;;;;;24.31;52.05;98450.06;5005378;28;20418;-62
2022/07/21 10:15:18;;;;;;;8.52;6.05;;;;;;;24.36;51.64;98452.50;5006846;28;20420;-62
2022/07/21 10:17:49;;;;;;;8.63;5.35;;;;;;;24.46;51.05;98450.97;5010892;28;20419;-62
2022/07/21 10:21:06;;;;;;;10.90;5.85;;;;;;;24.33;50.22;98446.88;5009649;28;20942;-60
2022/07/21 10:23:42;;;;;;;10.65;6.45;;;;;;;24.28;51.06;98450.81;5005995;28;20409;-61
2022/07/21 10:26:13;;;;;;;8.18;5.85;;;;;;;24.40;51.23;98458.06;5006853;28;20521;-60
2022/07/21 10:28:41;;;;;;;8.25;5.35;;;;;;;24.40;51.09;98447.75;5013800;28;20410;-60
2022/07/21 10:31:18;;;;;;;9.32;5.80;;;;;;;24.34;51.26;98451.25;5010676;28;20409;-61
2022/07/21 10:33:59;;;;;;;9.18;5.78;;;;;;;24.23;50.71;98452.00;4997977;28;20960;-61
2022/07/21 10:36:44;;;;;;;8.80;5.60;;;;;;;24.10;50.47;98449.94;5005600;28;20433;-61
2022/07/21 10:39:22;;;;;;;8.63;5.28;;;;;;;24.27;50.57;98449.25;5004940;28;21080;-62
2022/07/21 10:41:51;;;;;;;9.43;5.33;;;;;;;24.56;49.69;98447.44;5007359;28;20431;-61
2022/07/21 10:44:46;;;;;;;8.95;5.10;;;;;;;24.43;49.65;98446.16;5022015;28;20416;-59
2022/07/21 10:47:18;;;;;;;8.65;5.05;;;;;;;24.68;48.99;98447.06;5000054;28;20409;-61
2022/07/21 10:49:52;;;;;;;9.07;4.93;;;;;;;24.74;48.59;98451.03;5015815;28;20472;-60
2022/07/21 10:53:10;;;;;;;7.63;4.80;;;;;;;24.88;47.38;98439.19;5006470;28;20930;-60
2022/07/21 10:55:40;;;;;;;9.27;5.35;;;;;;;24.95;47.28;98443.97;5017834;28;20406;-60
2022/07/21 10:58:17;;;;;;;7.28;4.93;;;;;;;24.81;47.40;98450.25;5004375;28;20430;-61
2022/07/21 11:00:54;;;;;;;6.85;4.68;;;;;;;24.56;48.00;98450.19;5001874;28;20427;-60
2022/07/21 11:03:26;;;;;;;8.57;5.60;;;;;;;24.61;48.20;98457.34;5006896;28;20431;-63
2022/07/21 11:06:19;;;;;;;8.85;4.85;;;;;;;24.65;49.24;98452.59;5017253;28;20897;-61
2022/07/21 11:09:10;;;;;;;7.00;4.60;;;;;;;24.72;47.88;98439.53;5018424;28;20411;-60
2022/07/21 11:11:58;;;;;;;8.57;4.93;;;;;;;24.83;47.61;98431.22;5023257;28;20474;-60
2022/07/21 11:14:37;;;;;;;8.55;4.90;;;;;;;24.91;47.72;98430.03;5015749;28;20508;-61
2022/07/21 11:17:06;;;;;;;5.13;3.42;;;;;;;24.96;43.47;98429.66;4997514;28;20413;-61
2022/07/21 11:19:38;;;;;;;4.65;2.78;;;;;;;25.07;42.60;98430.50;4994351;28;20414;-62
2022/07/21 11:22:10;;;;;;;5.80;3.38;;;;;;;25.19;43.70;98420.19;5003181;28;20428;-62
2022/07/21 11:24:40;;;;;;;5.35;3.30;;;;;;;25.25;42.56;98430.53;5001687;28;20777;-62
2022/07/21 11:27:11;;;;;;;5.75;3.60;;;;;;;25.30;43.03;98424.56;4991000;28;20425;-62
2022/07/21 11:29:43;;;;;;;5.32;3.33;;;;;;;25.36;42.42;98424.97;5006637;28;20417;-61
2022/07/21 11:32:14;;;;;;;5.65;3.53;;;;;;;25.29;41.87;98417.41;5003300;28;20413;-61
2022/07/21 11:34:46;;;;;;;6.07;3.33;;;;;;;25.32;42.51;98415.81;5002906;28;20432;-60
2022/07/21 11:37:15;;;;;;;7.10;3.65;;;;;;;25.20;43.76;98414.25;5002522;28;20413;-61
2022/07/21 11:40:04;;;;;;;5.93;3.80;;;;;;;25.12;42.75;98409.06;5002642;28;20532;-61
2022/07/21 11:42:35;;;;;;;5.70;3.67;;;;;;;25.25;43.79;98408.28;5002804;28;20891;-61
2022/07/21 11:45:07;;;;;;;5.63;3.40;;;;;;;25.30;42.71;98402.31;5002219;28;20430;-63
2022/07/21 11:47:36;;;;;;;5.45;3.35;;;;;;;25.23;43.14;98410.66;4989714;28;20441;-61
2022/07/21 11:50:07;;;;;;;6.82;3.65;;;;;;;25.14;42.94;98398.31;4984693;28;20434;-61
2022/07/21 11:52:40;;;;;;;4.93;3.50;;;;;;;25.08;43.76;98409.84;5018244;28;20512;-64
2022/07/21 11:55:10;;;;;;;5.60;3.78;;;;;;;25.18;42.85;98396.34;4993260;28;20417;-62
2022/07/21 11:57:43;;;;;;;5.05;3.67;;;;;;;25.34;41.83;98386.41;5001804;28;20428;-61
2022/07/21 12:00:13;;;;;;;5.97;3.65;;;;;;;25.53;42.99;98390.78;4991108;28;20418;-63
2022/07/21 12:02:42;;;;;;;6.60;3.25;;;;;;;25.61;40.72;98372.06;4999459;28;20452;-61
2022/07/21 12:05:10;;;;;;;4.53;3.10;;;;;;;25.73;41.19;98384.78;5016498;28;20462;-61
2022/07/21 12:07:40;;;;;;;5.25;3.30;;;;;;;25.78;39.96;98376.03;5024939;28;20770;-61
2022/07/21 12:10:11;;;;;;;5.50;3.08;;;;;;;25.77;39.83;98377.25;5019649;28;20448;-61